createdAt,value
2019-03-24T00:00:12.310Z,9.40
2019-03-24T00:02:41.254Z,9.40
2019-03-24T00:05:12.917Z,9.30
2019-03-24T00:07:42.513Z,9.30
2019-03-24T00:10:11.226Z,9.20
2019-03-24T00:12:39.842Z,9.10
2019-03-24T00:15:09.044Z,9.10
2019-03-24T00:17:37.638Z,9.00
2019-03-24T00:20:07.462Z,9.00
2019-03-24T00:22:39.859Z,8.90
2019-03-24T00:25:08.483Z,8.90
2019-03-24T00:27:43.838Z,8.90
2019-03-24T00:30:12.877Z,8.80
2019-03-24T00:32:42.508Z,8.70
2019-03-24T00:35:11.415Z,8.70
2019-03-24T00:37:41.005Z,8.70
2019-03-24T00:40:09.984Z,8.60
2019-03-24T00:42:38.574Z,8.60
2019-03-24T00:45:11.107Z,8.60
2019-03-24T00:47:38.894Z,8.60
2019-03-24T00:50:07.828Z,8.50
2019-03-24T00:52:37.387Z,8.60
2019-03-24T00:55:07.570Z,8.60
2019-03-24T00:57:37.605Z,8.60
2019-03-24T01:00:08.996Z,8.50
2019-03-24T01:02:37.882Z,8.50
2019-03-24T01:05:07.927Z,8.50
2019-03-24T01:07:36.514Z,8.50
2019-03-24T01:10:08.584Z,8.50
2019-03-24T01:12:38.389Z,8.50
2019-03-24T01:15:07.992Z,8.50
2019-03-24T01:17:38.094Z,8.50
2019-03-24T01:20:07.913Z,8.50
2019-03-24T01:22:36.840Z,8.40
2019-03-24T01:25:06.054Z,8.40
2019-03-24T01:27:35.148Z,8.30
2019-03-24T01:30:09.291Z,8.20
2019-03-24T01:32:37.881Z,8.20
2019-03-24T01:35:08.655Z,8.20
2019-03-24T01:37:37.238Z,8.10
2019-03-24T01:40:07.900Z,8.10
2019-03-24T01:42:36.459Z,8.00
2019-03-24T01:45:10.013Z,8.00
2019-03-24T01:47:38.680Z,7.90
2019-03-24T01:50:08.464Z,7.90
2019-03-24T01:52:37.180Z,7.80
2019-03-24T01:55:07.117Z,7.80
2019-03-24T01:57:35.711Z,7.80
2019-03-24T02:00:07.132Z,7.70
2019-03-24T02:02:40.369Z,7.60
2019-03-24T02:05:09.082Z,7.60
2019-03-24T02:07:37.654Z,7.60
2019-03-24T02:10:08.296Z,7.50
2019-03-24T02:12:36.950Z,7.50
2019-03-24T02:15:08.784Z,7.40
2019-03-24T02:17:37.439Z,7.40
2019-03-24T02:20:07.251Z,7.30
2019-03-24T02:22:35.877Z,7.30
2019-03-24T02:25:08.145Z,7.30
2019-03-24T02:27:37.649Z,7.20
2019-03-24T02:30:09.739Z,7.30
2019-03-24T02:32:39.777Z,7.30
2019-03-24T02:35:08.873Z,7.20
2019-03-24T02:37:38.041Z,7.20
2019-03-24T02:40:07.864Z,7.20
2019-03-24T02:42:36.425Z,7.10
2019-03-24T02:45:07.211Z,7.10
2019-03-24T02:47:35.849Z,7.10
2019-03-24T02:50:06.355Z,7.00
2019-03-24T02:52:34.909Z,7.00
2019-03-24T02:55:04.595Z,7.00
2019-03-24T02:57:33.164Z,7.00
2019-03-24T03:00:01.749Z,7.00
2019-03-24T03:02:30.401Z,6.90
2019-03-24T03:05:00.035Z,7.00
2019-03-24T03:07:28.603Z,7.00
2019-03-24T03:09:57.291Z,7.00
2019-03-24T03:12:25.845Z,6.90
2019-03-24T03:14:54.419Z,6.90
2019-03-24T03:17:23.100Z,6.90
2019-03-24T03:19:53.728Z,6.80
2019-03-24T03:22:21.917Z,6.80
2019-03-24T03:24:50.597Z,6.70
2019-03-24T03:27:19.200Z,6.60
2019-03-24T03:29:47.772Z,6.60
2019-03-24T03:32:16.461Z,6.50
2019-03-24T03:34:46.114Z,6.50
2019-03-24T03:37:14.727Z,6.40
2019-03-24T03:39:43.279Z,6.40
2019-03-24T03:42:11.847Z,6.30
2019-03-24T03:44:40.491Z,6.20
2019-03-24T03:47:09.076Z,6.20
2019-03-24T03:49:37.640Z,6.10
2019-03-24T03:52:07.246Z,6.10
2019-03-24T03:54:38.639Z,6.10
2019-03-24T03:57:07.207Z,6.10
2019-03-24T03:59:35.792Z,6.10
2019-03-24T04:02:04.594Z,6.00
2019-03-24T04:04:33.123Z,6.00
2019-03-24T04:07:01.804Z,6.00
2019-03-24T04:09:31.350Z,6.00
2019-03-24T04:12:00.028Z,5.90
2019-03-24T04:14:38.706Z,5.90
2019-03-24T04:17:07.974Z,5.80
2019-03-24T04:19:36.966Z,5.80
2019-03-24T04:22:05.734Z,5.70
2019-03-24T04:24:34.438Z,5.70
2019-03-24T04:27:03.091Z,5.70
2019-03-24T04:29:31.665Z,5.70
2019-03-24T04:32:00.702Z,5.60
2019-03-24T04:34:29.313Z,5.60
2019-03-24T04:36:57.992Z,5.60
2019-03-24T04:39:26.605Z,5.50
2019-03-24T04:41:55.166Z,5.50
2019-03-24T04:44:23.752Z,5.50
2019-03-24T04:46:52.449Z,5.50
2019-03-24T04:49:21.050Z,5.50
2019-03-24T04:51:49.627Z,5.50
2019-03-24T04:54:18.208Z,5.50
2019-03-24T04:56:47.970Z,5.40
2019-03-24T04:59:16.554Z,5.50
2019-03-24T05:01:45.129Z,5.50
2019-03-24T05:04:14.701Z,5.40
2019-03-24T05:06:43.912Z,5.40
2019-03-24T05:09:12.978Z,5.40
2019-03-24T05:11:41.800Z,5.40
2019-03-24T05:14:11.305Z,5.40
2019-03-24T05:16:40.010Z,5.40
2019-03-24T05:19:11.869Z,5.50
2019-03-24T05:21:43.579Z,5.50
2019-03-24T05:24:12.197Z,5.60
2019-03-24T05:26:40.772Z,5.60
2019-03-24T05:29:09.396Z,5.70
2019-03-24T05:31:37.993Z,5.70
2019-03-24T05:34:06.562Z,5.80
2019-03-24T05:36:35.136Z,5.80
2019-03-24T05:39:05.171Z,5.80
2019-03-24T05:41:33.756Z,5.80
2019-03-24T05:44:02.704Z,5.80
2019-03-24T05:46:31.264Z,5.90
2019-03-24T05:48:59.846Z,5.90
2019-03-24T05:51:28.435Z,6.00
2019-03-24T05:53:58.020Z,6.10
2019-03-24T05:56:26.663Z,6.20
2019-03-24T05:58:55.264Z,6.30
2019-03-24T06:01:23.891Z,6.40
2019-03-24T06:03:52.449Z,6.50
2019-03-24T06:06:21.068Z,6.70
2019-03-24T06:08:52.030Z,6.80
2019-03-24T06:11:20.663Z,7.10
2019-03-24T06:13:49.281Z,7.40
2019-03-24T06:16:17.849Z,7.90
2019-03-24T06:18:46.420Z,8.40
2019-03-24T06:21:14.992Z,9.20
2019-03-24T06:23:43.584Z,9.70
2019-03-24T06:26:12.189Z,10.10
2019-03-24T06:28:40.777Z,10.40
2019-03-24T06:31:09.359Z,10.90
2019-03-24T06:33:37.987Z,11.40
2019-03-24T06:36:06.578Z,11.40
2019-03-24T06:38:35.141Z,11.40
2019-03-24T06:41:03.713Z,11.40
2019-03-24T06:43:32.666Z,11.30
2019-03-24T06:46:01.293Z,11.10
2019-03-24T06:48:29.879Z,10.90
2019-03-24T06:50:58.470Z,10.80
2019-03-24T06:53:27.849Z,10.80
2019-03-24T06:55:56.457Z,10.80
2019-03-24T06:58:25.024Z,10.90
2019-03-24T07:00:53.723Z,10.80
2019-03-24T07:03:22.328Z,10.80
2019-03-24T07:05:50.920Z,10.70
2019-03-24T07:08:19.513Z,10.60
2019-03-24T07:10:49.074Z,10.70
2019-03-24T07:13:17.677Z,10.70
2019-03-24T07:15:52.208Z,10.90
2019-03-24T07:18:26.922Z,11.10
2019-03-24T07:20:55.496Z,11.10
2019-03-24T07:23:24.154Z,11.10
2019-03-24T07:25:54.519Z,11.10
2019-03-24T07:28:24.891Z,11.00
2019-03-24T07:30:53.377Z,10.90
2019-03-24T07:33:21.985Z,10.80
2019-03-24T07:35:50.659Z,10.80
2019-03-24T07:38:19.231Z,10.70
2019-03-24T07:40:47.820Z,10.70
2019-03-24T07:43:16.472Z,10.60
2019-03-24T07:45:45.072Z,10.60
2019-03-24T07:48:19.301Z,10.70
2019-03-24T07:50:45.293Z,10.80
2019-03-24T07:53:14.016Z,10.80
2019-03-24T07:55:42.687Z,10.80
2019-03-24T07:58:11.273Z,10.90
2019-03-24T08:00:39.955Z,11.20
2019-03-24T08:03:08.529Z,11.50
2019-03-24T08:05:37.104Z,11.60
2019-03-24T08:08:05.799Z,11.80
2019-03-24T08:10:34.470Z,12.10
2019-03-24T08:13:04.127Z,12.20
2019-03-24T08:15:32.703Z,12.30
2019-03-24T08:18:02.259Z,12.30
2019-03-24T08:20:30.859Z,12.30
2019-03-24T08:23:01.468Z,12.40
2019-03-24T08:25:35.917Z,12.60
2019-03-24T08:28:06.084Z,12.70
2019-03-24T08:30:36.011Z,12.80
2019-03-24T08:33:05.536Z,12.90
2019-03-24T08:35:35.138Z,13.20
2019-03-24T08:38:05.306Z,13.60
2019-03-24T08:40:34.054Z,14.00
2019-03-24T08:43:02.688Z,14.70
2019-03-24T08:45:31.613Z,15.60
2019-03-24T08:48:00.261Z,16.50
2019-03-24T08:50:28.915Z,17.00
2019-03-24T08:52:57.561Z,17.00
2019-03-24T08:55:26.272Z,16.90
2019-03-24T08:57:56.875Z,16.70
2019-03-24T09:00:30.483Z,17.30
2019-03-24T09:02:56.817Z,18.40
2019-03-24T09:05:25.410Z,19.80
2019-03-24T09:07:54.067Z,20.80
2019-03-24T09:10:22.731Z,22.30
2019-03-24T09:12:51.306Z,24.50
2019-03-24T09:15:19.952Z,25.40
2019-03-24T09:17:48.541Z,25.20
2019-03-24T09:20:17.292Z,24.90
2019-03-24T09:22:45.943Z,24.40
2019-03-24T09:25:14.582Z,24.10
2019-03-24T09:27:43.243Z,23.90
2019-03-24T09:30:29.530Z,23.70
2019-03-24T09:32:58.219Z,23.50
2019-03-24T09:35:27.205Z,23.20
2019-03-24T09:37:56.209Z,22.70
2019-03-24T09:40:32.808Z,23.40
2019-03-24T09:43:02.066Z,24.40
2019-03-24T09:45:32.176Z,25.50
2019-03-24T09:48:01.688Z,26.30
2019-03-24T09:50:30.715Z,26.80
2019-03-24T09:52:59.763Z,26.60
2019-03-24T09:55:28.434Z,26.30
2019-03-24T09:57:57.005Z,25.50
2019-03-24T10:00:26.352Z,25.20
2019-03-24T10:02:54.986Z,24.00
2019-03-24T10:05:23.599Z,22.90
2019-03-24T10:07:52.244Z,22.40
2019-03-24T10:10:20.885Z,21.70
2019-03-24T10:12:52.240Z,21.10
2019-03-24T10:15:20.819Z,20.40
2019-03-24T10:17:49.432Z,19.40
2019-03-24T10:20:18.405Z,18.70
2019-03-24T10:22:46.960Z,18.30
2019-03-24T10:25:16.707Z,17.40
2019-03-24T10:27:45.282Z,17.00
2019-03-24T10:30:14.187Z,17.00
2019-03-24T10:32:42.838Z,16.90
2019-03-24T10:35:11.588Z,16.90
2019-03-24T10:37:40.285Z,16.80
2019-03-24T10:40:10.939Z,16.80
2019-03-24T10:42:39.583Z,16.80
2019-03-24T10:45:08.827Z,16.80
2019-03-24T10:47:37.741Z,16.70
2019-03-24T10:50:08.619Z,16.60
2019-03-24T10:52:37.459Z,16.50
2019-03-24T10:55:08.834Z,16.50
2019-03-24T10:57:37.491Z,16.60
2019-03-24T11:00:07.898Z,16.60
2019-03-24T11:02:36.747Z,16.70
2019-03-24T11:05:07.272Z,16.70
2019-03-24T11:07:35.875Z,16.60
2019-03-24T11:10:08.324Z,16.50
2019-03-24T11:12:36.108Z,16.20
2019-03-24T11:15:07.637Z,16.10
2019-03-24T11:17:36.261Z,16.00
2019-03-24T11:20:07.208Z,16.00
2019-03-24T11:22:35.826Z,16.00
2019-03-24T11:25:09.190Z,15.90
2019-03-24T11:27:38.069Z,15.90
2019-03-24T11:30:13.945Z,15.80
2019-03-24T11:32:42.843Z,15.90
2019-03-24T11:35:11.703Z,16.00
2019-03-24T11:37:40.349Z,16.00
2019-03-24T11:40:10.057Z,16.00
2019-03-24T11:42:38.739Z,16.00
2019-03-24T11:45:11.684Z,16.00
2019-03-24T11:47:42.262Z,15.90
2019-03-24T11:50:11.422Z,15.90
2019-03-24T11:52:40.137Z,16.00
2019-03-24T11:55:10.317Z,16.00
2019-03-24T11:57:40.010Z,16.00
2019-03-24T12:00:11.587Z,15.90
2019-03-24T12:02:40.319Z,15.90
2019-03-24T12:05:09.344Z,16.00
2019-03-24T12:07:37.919Z,16.00
2019-03-24T12:10:07.821Z,16.00
2019-03-24T12:12:36.476Z,15.60
2019-03-24T12:15:07.305Z,15.40
2019-03-24T12:17:36.025Z,15.30
2019-03-24T12:20:09.661Z,15.20
2019-03-24T12:22:38.275Z,15.10
2019-03-24T12:25:07.873Z,15.00
2019-03-24T12:27:37.462Z,14.80
2019-03-24T12:30:07.949Z,14.50
2019-03-24T12:32:37.979Z,14.30
2019-03-24T12:35:10.226Z,14.20
2019-03-24T12:37:38.954Z,14.10
2019-03-24T12:40:09.678Z,14.00
2019-03-24T12:42:38.972Z,14.00
2019-03-24T12:45:08.509Z,14.00
2019-03-24T12:47:37.148Z,14.00
2019-03-24T12:50:09.204Z,14.00
2019-03-24T12:52:37.875Z,14.00
2019-03-24T12:55:07.607Z,14.10
2019-03-24T12:57:36.653Z,14.30
2019-03-24T13:00:08.418Z,14.40
2019-03-24T13:02:37.067Z,14.50
2019-03-24T13:05:08.685Z,14.40
2019-03-24T13:07:37.411Z,14.30
2019-03-24T13:10:09.076Z,14.10
2019-03-24T13:12:37.863Z,14.10
2019-03-24T13:15:08.993Z,14.20
2019-03-24T13:17:37.663Z,14.20
2019-03-24T13:20:19.599Z,14.10
2019-03-24T13:22:38.551Z,14.10
2019-03-24T13:25:07.660Z,14.00
2019-03-24T13:27:36.252Z,14.00
2019-03-24T13:30:06.842Z,14.10
2019-03-24T13:32:35.430Z,14.10
2019-03-24T13:35:04.827Z,14.20
2019-03-24T13:37:33.379Z,14.30
2019-03-24T13:40:02.251Z,14.40
2019-03-24T13:42:30.859Z,14.40
2019-03-24T13:44:59.853Z,14.30
2019-03-24T13:47:28.479Z,14.20
2019-03-24T13:49:57.077Z,14.00
2019-03-24T13:52:25.733Z,13.90
2019-03-24T13:54:54.379Z,13.90
2019-03-24T13:57:22.991Z,13.90
2019-03-24T13:59:51.552Z,13.90
2019-03-24T14:02:20.616Z,13.90
2019-03-24T14:04:49.269Z,14.00
2019-03-24T14:07:17.861Z,14.10
2019-03-24T14:09:46.462Z,14.10
2019-03-24T14:12:15.426Z,14.00
2019-03-24T14:14:44.082Z,14.00
2019-03-24T14:17:12.700Z,14.00
2019-03-24T14:19:41.280Z,14.00
2019-03-24T14:22:10.236Z,14.10
2019-03-24T14:24:38.857Z,14.10
2019-03-24T14:27:07.498Z,14.00
2019-03-24T14:29:36.079Z,14.00
2019-03-24T14:32:04.796Z,13.90
2019-03-24T14:34:33.646Z,13.80
2019-03-24T14:37:02.575Z,13.70
2019-03-24T14:39:31.132Z,13.70
2019-03-24T14:41:59.695Z,13.50
2019-03-24T14:44:28.612Z,13.50
2019-03-24T14:46:57.247Z,13.40
2019-03-24T14:49:25.866Z,13.20
2019-03-24T14:51:56.014Z,13.10
2019-03-24T14:54:26.144Z,13.00
2019-03-24T14:56:55.027Z,13.00
2019-03-24T14:59:23.588Z,13.00
2019-03-24T15:01:52.277Z,12.90
2019-03-24T15:04:20.869Z,12.90
2019-03-24T15:06:49.477Z,13.00
2019-03-24T15:09:18.075Z,12.90
2019-03-24T15:11:48.395Z,12.70
2019-03-24T15:14:18.394Z,12.60
2019-03-24T15:16:48.720Z,12.50
2019-03-24T15:19:18.359Z,12.50
2019-03-24T15:21:46.982Z,12.40
2019-03-24T15:24:15.985Z,12.40
2019-03-24T15:26:44.596Z,12.30
2019-03-24T15:29:13.222Z,12.20
2019-03-24T15:31:41.808Z,12.10
2019-03-24T15:34:10.427Z,12.20
2019-03-24T15:36:38.981Z,12.20
2019-03-24T15:39:09.290Z,12.20
2019-03-24T15:41:37.971Z,12.30
2019-03-24T15:44:06.594Z,12.20
2019-03-24T15:46:35.523Z,12.10
2019-03-24T15:49:04.149Z,12.10
2019-03-24T15:51:32.817Z,12.00
2019-03-24T15:54:02.748Z,11.90
2019-03-24T15:56:31.315Z,11.90
2019-03-24T15:59:00.826Z,11.80
2019-03-24T16:01:29.454Z,11.70
2019-03-24T16:03:58.022Z,11.70
2019-03-24T16:06:26.616Z,11.70
2019-03-24T16:08:56.530Z,11.60
2019-03-24T16:11:25.117Z,11.60
2019-03-24T16:13:53.684Z,11.50
2019-03-24T16:16:23.222Z,11.40
2019-03-24T16:18:52.010Z,11.40
2019-03-24T16:21:27.662Z,11.30
2019-03-24T16:23:51.180Z,11.20
2019-03-24T16:26:19.836Z,11.10
2019-03-24T16:28:48.456Z,11.10
2019-03-24T16:31:18.006Z,11.00
2019-03-24T16:33:46.669Z,10.90
2019-03-24T16:36:15.249Z,10.90
2019-03-24T16:38:48.927Z,10.80
2019-03-24T16:41:14.512Z,10.80
2019-03-24T16:43:43.110Z,10.70
2019-03-24T16:46:11.673Z,10.70
2019-03-24T16:48:41.246Z,10.70
2019-03-24T16:51:10.129Z,10.70
2019-03-24T16:53:38.705Z,10.60
2019-03-24T16:56:08.294Z,10.50
2019-03-24T16:58:36.892Z,10.40
2019-03-24T17:01:05.531Z,10.40
2019-03-24T17:03:34.195Z,10.30
2019-03-24T17:06:02.757Z,10.20
2019-03-24T17:08:32.297Z,10.80
2019-03-24T17:11:01.367Z,10.10
2019-03-24T17:13:29.972Z,10.00
2019-03-24T17:15:58.612Z,10.00
2019-03-24T17:18:27.487Z,9.90
2019-03-24T17:20:56.457Z,9.90
2019-03-24T17:23:25.044Z,9.80
2019-03-24T17:25:54.333Z,9.70
2019-03-24T17:28:22.872Z,9.70
2019-03-24T17:30:52.537Z,9.60
2019-03-24T17:33:23.059Z,9.60
2019-03-24T17:35:51.825Z,9.60
2019-03-24T17:38:23.855Z,9.60
2019-03-24T17:40:52.785Z,9.50
2019-03-24T17:43:21.709Z,9.50
2019-03-24T17:45:50.286Z,9.50
2019-03-24T17:48:20.559Z,9.50
2019-03-24T17:50:49.596Z,9.50
2019-03-24T17:53:18.257Z,9.50
2019-03-24T17:55:46.921Z,9.50
2019-03-24T17:58:15.496Z,9.50
2019-03-24T18:00:52.609Z,9.50
2019-03-24T18:03:21.315Z,9.50
2019-03-24T18:05:49.929Z,9.50
2019-03-24T18:08:18.597Z,9.40
2019-03-24T18:10:47.186Z,9.40
2019-03-24T18:13:15.746Z,9.40
2019-03-24T18:15:44.377Z,9.40
2019-03-24T18:18:12.965Z,9.40
2019-03-24T18:20:41.511Z,9.50
2019-03-24T18:23:10.255Z,9.50
2019-03-24T18:25:38.861Z,9.50
2019-03-24T18:28:07.547Z,9.40
2019-03-24T18:30:36.274Z,9.40
2019-03-24T18:33:09.318Z,9.40
2019-03-24T18:35:37.896Z,9.40
2019-03-24T18:38:06.583Z,9.40
2019-03-24T18:40:35.229Z,9.40
2019-03-24T18:43:03.978Z,9.40
2019-03-24T18:45:32.630Z,9.40
2019-03-24T18:48:01.281Z,9.40
2019-03-24T18:50:29.901Z,9.40
2019-03-24T18:53:02.064Z,9.40
2019-03-24T18:55:30.644Z,9.50
2019-03-24T18:58:00.658Z,9.40
2019-03-24T19:00:29.243Z,9.40
2019-03-24T19:02:57.910Z,9.40
2019-03-24T19:05:26.476Z,9.30
2019-03-24T19:07:55.395Z,9.30
2019-03-24T19:10:24.088Z,9.30
2019-03-24T19:12:52.988Z,9.20
2019-03-24T19:15:21.809Z,9.20
2019-03-24T19:17:50.789Z,9.20
2019-03-24T19:20:20.688Z,9.20
2019-03-24T19:22:49.303Z,9.20
2019-03-24T19:25:17.955Z,9.20
2019-03-24T19:27:46.637Z,9.20
2019-03-24T19:30:20.356Z,9.20
2019-03-24T19:32:49.021Z,9.20
2019-03-24T19:35:18.164Z,9.20
2019-03-24T19:37:47.165Z,9.20
2019-03-24T19:40:27.312Z,9.10
2019-03-24T19:42:56.272Z,9.10
2019-03-24T19:45:25.098Z,9.10
2019-03-24T19:47:55.881Z,9.10
2019-03-24T19:50:24.622Z,9.10
2019-03-24T19:52:53.333Z,9.10
2019-03-24T19:55:22.948Z,9.10
2019-03-24T19:57:51.515Z,9.10
2019-03-24T20:00:20.221Z,9.10
2019-03-24T20:02:48.814Z,9.20
2019-03-24T20:05:17.379Z,9.10
2019-03-24T20:07:48.187Z,9.10
2019-03-24T20:10:16.273Z,9.10
2019-03-24T20:12:44.903Z,9.10
2019-03-24T20:15:13.657Z,9.10
2019-03-24T20:17:42.417Z,9.10
2019-03-24T20:20:12.916Z,9.10
2019-03-24T20:22:41.688Z,9.10
2019-03-24T20:25:10.567Z,9.10
2019-03-24T20:27:39.415Z,9.10
2019-03-24T20:30:11.778Z,9.10
2019-03-24T20:32:40.453Z,9.10
2019-03-24T20:35:09.950Z,9.10
2019-03-24T20:37:38.519Z,9.00
2019-03-24T20:40:07.736Z,9.00
2019-03-24T20:42:36.391Z,9.00
2019-03-24T20:45:07.013Z,9.00
2019-03-24T20:47:35.661Z,8.90
2019-03-24T20:50:09.761Z,8.90
2019-03-24T20:52:38.457Z,8.90
2019-03-24T20:55:08.702Z,8.90
2019-03-24T20:57:37.389Z,8.90
2019-03-24T21:00:07.908Z,8.90
2019-03-24T21:02:37.237Z,8.90
2019-03-24T21:05:11.091Z,8.90
2019-03-24T21:07:40.226Z,8.80
2019-03-24T21:10:09.320Z,8.80
2019-03-24T21:12:38.997Z,8.80
2019-03-24T21:15:11.192Z,8.80
2019-03-24T21:17:47.662Z,8.80
2019-03-24T21:20:16.320Z,8.80
2019-03-24T21:22:44.904Z,8.70
2019-03-24T21:25:15.567Z,8.70
2019-03-24T21:27:44.177Z,8.60
2019-03-24T21:30:13.706Z,8.60
2019-03-24T21:32:42.315Z,8.50
2019-03-24T21:35:11.254Z,8.50
2019-03-24T21:37:39.971Z,8.50
2019-03-24T21:40:08.727Z,8.40
2019-03-24T21:42:37.344Z,8.40
2019-03-24T21:45:08.561Z,8.40
2019-03-24T21:47:37.152Z,8.40
2019-03-24T21:50:07.289Z,8.50
2019-03-24T21:52:35.935Z,8.50
2019-03-24T21:55:06.445Z,8.50
2019-03-24T21:57:35.219Z,8.50
2019-03-24T22:00:06.938Z,8.50
2019-03-24T22:02:37.270Z,8.50
2019-03-24T22:05:10.755Z,8.50
2019-03-24T22:07:36.785Z,8.40
2019-03-24T22:10:06.537Z,8.40
2019-03-24T22:12:36.141Z,8.40
2019-03-24T22:15:09.944Z,8.40
2019-03-24T22:17:39.776Z,8.40
2019-03-24T22:20:08.899Z,8.40
2019-03-24T22:22:38.602Z,8.40
2019-03-24T22:25:08.321Z,8.40
2019-03-24T22:27:36.970Z,8.40
2019-03-24T22:30:07.542Z,8.40
2019-03-24T22:32:36.163Z,8.40
2019-03-24T22:35:06.759Z,8.40
2019-03-24T22:37:36.392Z,8.40
2019-03-24T22:40:06.850Z,8.30
2019-03-24T22:42:36.524Z,8.40
2019-03-24T22:45:06.653Z,8.30
2019-03-24T22:47:35.331Z,8.30
2019-03-24T22:50:06.957Z,8.30
2019-03-24T22:52:35.600Z,8.30
2019-03-24T22:55:06.061Z,8.30
2019-03-24T22:57:35.298Z,8.30
2019-03-24T23:00:05.575Z,8.30
2019-03-24T23:02:34.382Z,8.20
2019-03-24T23:05:04.746Z,8.20
2019-03-24T23:07:34.880Z,8.20
2019-03-24T23:10:06.409Z,8.20
2019-03-24T23:12:34.942Z,8.20
2019-03-24T23:15:05.052Z,8.10
2019-03-24T23:17:33.728Z,8.10
2019-03-24T23:20:02.478Z,8.10
2019-03-24T23:22:31.050Z,8.10
2019-03-24T23:24:59.615Z,8.00
2019-03-24T23:27:28.250Z,8.00
2019-03-24T23:29:56.832Z,8.00
2019-03-24T23:32:25.421Z,8.00
2019-03-24T23:34:54.025Z,7.90
2019-03-24T23:37:28.303Z,7.90
2019-03-24T23:39:56.927Z,7.90
2019-03-24T23:42:26.815Z,7.80
2019-03-24T23:44:55.408Z,7.80
2019-03-24T23:47:23.968Z,7.70
2019-03-24T23:49:52.597Z,7.70
2019-03-24T23:52:21.175Z,7.70
2019-03-24T23:54:49.747Z,7.70
2019-03-24T23:57:20.157Z,7.70
2019-03-24T23:59:51.353Z,7.80
